Time;durP1;ratioP1;P1;durP2;ratioP2;P2;SDS_P1;SDS_P2;PMS_P1;PMS_P2;Temp;Humidity;BMP_temperature;BMP_pressure;BME280_temperature;BME280_humidity;BME280_pressure;Samples;Min_cycle;Max_cycle;Signal;HPM_P1;HPM_P2
2022/01/03 00:01:58;;;;;;;19.50;8.10;;;;;;;-5.41;67.81;99428.35;25114;1313;3026368;-66
2022/01/03 00:04:46;;;;;;;18.30;7.40;;;;;;;-5.45;67.67;99429.54;25107;1313;3052619;-65
2022/01/03 00:07:15;;;;;;;13.80;6.90;;;;;;;-5.49;67.85;99424.05;25164;1313;3028117;-66
2022/01/03 00:09:53;;;;;;;14.60;6.50;;;;;;;-5.43;67.72;99417.59;25152;1312;3053306;-65
2022/01/03 00:12:42;;;;;;;12.30;5.70;;;;;;;-5.47;67.53;99414.67;25139;1312;3053797;-69
2022/01/03 00:15:13;;;;;;;14.30;6.60;;;;;;;-5.46;67.77;99408.36;25146;1313;3026499;-66
2022/01/03 00:17:42;;;;;;;17.90;7.80;;;;;;;-5.42;67.76;99414.02;25173;1312;3026661;-66
2022/01/03 00:20:31;;;;;;;19.00;6.90;;;;;;;-5.39;67.95;99408.23;25160;1312;3053328;-69
2022/01/03 00:23:02;;;;;;;17.10;6.90;;;;;;;-5.38;67.77;99394.55;25133;1313;3028520;-68
2022/01/03 00:25:35;;;;;;;14.40;5.50;;;;;;;-5.30;67.48;99391.33;25123;1313;3050186;-64
2022/01/03 00:28:07;;;;;;;9.50;4.80;;;;;;;-5.34;67.84;99399.52;25132;1312;3029225;-69
2022/01/03 00:30:41;;;;;;;11.00;5.20;;;;;;;-5.44;68.12;99397.10;25145;1312;3026439;-66
2022/01/03 00:33:11;;;;;;;8.20;4.40;;;;;;;-5.52;68.13;99394.68;25123;1312;3028094;-69
2022/01/03 00:35:41;;;;;;;8.40;4.40;;;;;;;-5.53;68.36;99378.64;25097;1312;3027411;-65
2022/01/03 00:38:11;;;;;;;9.50;5.00;;;;;;;-5.51;68.45;99373.02;25157;1313;3026320;-66
2022/01/03 00:40:50;;;;;;;8.30;4.30;;;;;;;-5.53;68.21;99377.61;25156;1313;3053964;-66
2022/01/03 00:43:19;;;;;;;11.20;5.50;;;;;;;-5.51;68.22;99367.71;25127;1312;3026437;-71
2022/01/03 00:45:52;;;;;;;10.30;4.10;;;;;;;-5.52;67.91;99367.20;25138;1313;3053918;-65
2022/01/03 00:48:21;;;;;;;10.10;5.10;;;;;;;-5.51;68.44;99358.33;25145;1312;3026945;-72
2022/01/03 00:50:51;;;;;;;12.10;4.70;;;;;;;-5.48;68.17;99351.67;25169;1312;3027541;-67
2022/01/03 00:53:20;;;;;;;11.20;5.00;;;;;;;-5.40;68.19;99342.30;25127;1312;3026219;-64
2022/01/03 00:56:24;;;;;;;11.20;6.20;;;;;;;-5.46;68.48;99337.34;25158;1313;3051745;-65
2022/01/03 00:59:00;;;;;;;11.60;5.90;;;;;;;-5.32;68.61;99329.52;25139;1312;3055632;-66
2022/01/03 01:01:29;;;;;;;13.70;5.50;;;;;;;-5.30;68.24;99320.98;25163;1312;3052828;-66
2022/01/03 01:03:58;;;;;;;13.10;6.20;;;;;;;-5.33;68.28;99306.48;25097;1316;3026744;-67
2022/01/03 01:06:32;;;;;;;10.80;5.50;;;;;;;-5.30;68.02;99313.13;25146;1312;3057914;-65
2022/01/03 01:09:03;;;;;;;11.90;5.70;;;;;;;-5.41;68.33;99304.07;25135;1313;3026233;-67
2022/01/03 01:11:32;;;;;;;16.90;6.80;;;;;;;-5.39;69.04;99306.45;25153;1312;3026326;-67
2022/01/03 01:14:22;;;;;;;21.60;8.30;;;;;;;-5.35;69.12;99297.92;25130;1313;3054177;-67
2022/01/03 01:16:52;;;;;;;27.20;9.60;;;;;;;-5.30;69.22;99295.03;25133;1313;3026558;-68
2022/01/03 01:19:21;;;;;;;20.30;8.90;;;;;;;-5.28;69.46;99285.98;25162;1313;3026853;-66
2022/01/03 01:21:51;;;;;;;18.00;8.30;;;;;;;-5.24;69.82;99276.08;25124;1312;3051230;-65
2022/01/03 01:24:22;;;;;;;16.90;7.60;;;;;;;-5.26;70.39;99273.17;25114;1312;3027074;-70
2022/01/03 01:29:40;;;;;;;15.20;7.20;;;;;;;-5.20;71.17;99260.36;25123;1312;3055157;-69
2022/01/03 01:32:11;;;;;;;18.70;7.90;;;;;;;-5.14;71.62;99256.61;25168;1312;3026272;-63
2022/01/03 01:34:41;;;;;;;18.60;7.50;;;;;;;-5.17;71.98;99250.46;25123;1313;3026569;-68
2022/01/03 01:37:10;;;;;;;13.70;6.50;;;;;;;-5.15;71.81;99249.77;25111;1313;3026474;-61
2022/01/03 01:39:41;;;;;;;18.10;6.90;;;;;;;-5.20;72.65;99246.70;25162;1312;3026551;-65
2022/01/03 01:42:11;;;;;;;15.50;6.50;;;;;;;-4.48;70.94;99234.25;25143;1313;3026524;-68
2022/01/03 01:44:40;;;;;;;21.10;7.90;;;;;;;-4.02;68.67;99230.47;25129;1312;3026215;-66
2022/01/03 01:47:10;;;;;;;15.10;6.80;;;;;;;-3.86;68.50;99224.05;25091;1315;3052700;-67
2022/01/03 01:49:46;;;;;;;15.20;6.60;;;;;;;-3.94;68.79;99220.34;25121;1313;3026951;-69
2022/01/03 01:52:20;;;;;;;14.90;6.80;;;;;;;-4.06;69.29;99213.91;25170;1312;3069447;-67
2022/01/03 01:54:56;;;;;;;15.50;7.50;;;;;;;-4.19;69.80;99212.77;25162;1312;3049238;-66
2022/01/03 01:57:50;;;;;;;16.80;7.30;;;;;;;-4.12;69.83;99214.11;25152;1312;3051757;-68
2022/01/03 02:00:21;;;;;;;17.90;6.90;;;;;;;-4.20;69.92;99202.69;25165;1313;3053990;-64
2022/01/03 02:03:06;;;;;;;14.00;6.70;;;;;;;-4.33;70.91;99189.41;25143;1312;3057873;-67
2022/01/03 02:05:38;;;;;;;14.30;6.70;;;;;;;-4.51;71.89;99183.68;25144;1312;3051870;-64
2022/01/03 02:08:16;;;;;;;14.20;5.50;;;;;;;-4.50;71.93;99181.27;25165;1312;3026463;-68
2022/01/03 02:11:19;;;;;;;12.50;5.60;;;;;;;-4.41;72.49;99176.79;25146;1313;3053638;-67
2022/01/03 02:13:49;;;;;;;9.90;5.30;;;;;;;-4.55;72.86;99175.66;25144;1312;3071774;-65
2022/01/03 02:16:18;;;;;;;12.60;5.70;;;;;;;-4.61;73.91;99164.91;25150;1313;3026943;-61
2022/01/03 02:18:51;;;;;;;11.50;5.60;;;;;;;-4.56;73.74;99156.85;25134;1313;3053208;-70
2022/01/03 02:21:21;;;;;;;12.40;5.30;;;;;;;-4.51;73.57;99149.14;25107;1313;3028729;-68
2022/01/03 02:23:51;;;;;;;14.60;5.80;;;;;;;-4.42;73.70;99148.23;25145;1313;3053407;-65
2022/01/03 02:26:20;;;;;;;14.60;5.90;;;;;;;-4.35;74.04;99139.31;25129;1313;3027301;-66
2022/01/03 02:28:51;;;;;;;12.40;4.60;;;;;;;-3.85;72.83;99130.26;25125;1313;3026452;-68
2022/01/03 02:31:21;;;;;;;10.70;4.60;;;;;;;-3.39;70.93;99123.36;25132;1313;3028514;-67
2022/01/03 02:33:51;;;;;;;10.70;4.80;;;;;;;-3.09;70.00;99116.55;25187;1313;3026360;-67
2022/01/03 02:36:20;;;;;;;9.40;4.50;;;;;;;-3.34;70.52;99114.77;25162;1312;3027393;-67
2022/01/03 02:38:49;;;;;;;14.20;5.20;;;;;;;-3.56;71.63;99112.22;25129;1312;3048728;-69
2022/01/03 02:41:18;;;;;;;9.80;4.80;;;;;;;-3.67;72.45;99106.84;25127;1312;3027069;-64
2022/01/03 02:43:50;;;;;;;10.80;5.20;;;;;;;-3.80;73.16;99094.98;25139;1313;3070658;-67
2022/01/03 02:46:19;;;;;;;11.70;5.30;;;;;;;-3.89;74.17;99089.73;25175;1313;3026379;-65
2022/01/03 02:48:50;;;;;;;12.60;5.90;;;;;;;-3.88;74.83;99085.79;25159;1315;3026878;-64
2022/01/03 02:51:19;;;;;;;13.60;6.00;;;;;;;-4.01;75.75;99074.09;25135;1312;3026898;-68
2022/01/03 02:53:47;;;;;;;15.50;6.60;;;;;;;-3.98;75.87;99067.39;25175;1312;3047067;-66
2022/01/03 02:56:17;;;;;;;19.10;5.90;;;;;;;-4.18;76.71;99058.83;25143;1314;3026025;-64
2022/01/03 02:58:46;;;;;;;13.40;6.10;;;;;;;-4.29;77.90;99056.51;25138;1312;3026860;-69
2022/01/03 03:01:14;;;;;;;12.00;5.30;;;;;;;-3.71;76.49;99048.66;25150;1312;3050208;-73
2022/01/03 03:03:50;;;;;;;13.10;5.90;;;;;;;-3.11;74.28;99027.98;25142;1313;3027430;-66
2022/01/03 03:06:19;;;;;;;12.00;5.40;;;;;;;-3.08;73.98;99012.37;25147;1315;3026273;-64
2022/01/03 03:08:48;;;;;;;12.80;5.10;;;;;;;-3.20;74.40;99010.80;25151;1312;3027128;-65
2022/01/03 03:11:17;;;;;;;9.50;5.20;;;;;;;-3.19;74.58;98998.45;25150;1313;3054716;-64
2022/01/03 03:13:46;;;;;;;10.50;5.10;;;;;;;-3.47;75.68;98986.10;25148;1313;3026364;-67
2022/01/03 03:16:15;;;;;;;11.20;5.20;;;;;;;-3.70;77.03;98978.48;25137;1312;3050894;-65
2022/01/03 03:18:44;;;;;;;14.70;6.30;;;;;;;-3.65;77.28;98970.38;25160;1313;3026722;-70
2022/01/03 03:21:13;;;;;;;10.60;5.30;;;;;;;-3.67;77.90;98965.09;25137;1313;3068235;-69
2022/01/03 03:23:43;;;;;;;8.70;4.90;;;;;;;-3.77;78.58;98958.86;25146;1313;3026241;-70
2022/01/03 03:26:12;;;;;;;10.50;4.80;;;;;;;-3.42;77.97;98955.23;25171;1313;3027796;-66
2022/01/03 03:28:42;;;;;;;9.40;5.00;;;;;;;-3.12;76.60;98942.34;25144;1313;3026524;-69
2022/01/03 03:31:11;;;;;;;10.10;4.80;;;;;;;-3.13;76.87;98940.30;25130;1312;3027317;-63
2022/01/03 03:33:49;;;;;;;11.20;4.90;;;;;;;-3.09;76.99;98941.26;25153;1312;3056575;-69
2022/01/03 03:36:18;;;;;;;8.90;5.00;;;;;;;-3.13;76.93;98934.80;25131;1312;3026523;-68
2022/01/03 03:38:48;;;;;;;14.20;4.80;;;;;;;-3.21;77.63;98917.44;25128;1312;3048783;-68
2022/01/03 03:41:20;;;;;;;10.40;5.00;;;;;;;-3.41;78.21;98912.91;25137;1312;3026560;-73
2022/01/03 03:43:52;;;;;;;9.30;4.80;;;;;;;-3.38;78.76;98922.13;25151;1312;3029451;-64
2022/01/03 03:46:22;;;;;;;8.20;4.10;;;;;;;-3.56;79.42;98919.42;25151;1312;3026486;-69
2022/01/03 03:48:51;;;;;;;9.10;4.00;;;;;;;-3.67;80.06;98912.37;25167;1312;3054820;-67
2022/01/03 03:51:23;;;;;;;7.40;3.80;;;;;;;-3.41;79.40;98904.69;25185;1311;3027048;-69
2022/01/03 03:53:54;;;;;;;5.70;3.30;;;;;;;-2.95;77.26;98884.02;25006;1312;3036620;-64
2022/01/03 03:56:24;;;;;;;8.30;3.90;;;;;;;-2.82;76.45;98878.66;25138;1312;3026651;-66
2022/01/03 03:58:53;;;;;;;8.30;3.80;;;;;;;-2.94;76.90;98871.30;25135;1312;3027263;-65
2022/01/03 04:01:23;;;;;;;6.80;3.80;;;;;;;-3.12;77.37;98861.30;25137;1312;3056192;-68
2022/01/03 04:03:54;;;;;;;6.40;3.80;;;;;;;-3.31;78.21;98853.84;25139;1313;3027250;-67
2022/01/03 04:06:24;;;;;;;7.30;4.10;;;;;;;-3.35;78.21;98849.98;25123;1312;3026590;-66
2022/01/03 04:08:56;;;;;;;11.10;3.90;;;;;;;-3.33;78.37;98837.46;25167;1312;3026598;-71
2022/01/03 04:11:26;;;;;;;5.60;3.50;;;;;;;-3.41;78.97;98825.06;25116;1312;3028099;-69
2022/01/03 04:13:57;;;;;;;6.60;3.80;;;;;;;-2.95;77.68;98822.14;25150;1313;3026534;-69
2022/01/03 04:16:26;;;;;;;6.50;3.60;;;;;;;-2.75;76.71;98823.52;25146;1311;3027761;-71
2022/01/03 04:18:56;;;;;;;7.50;4.10;;;;;;;-3.00;77.06;98821.52;25114;1313;3070628;-65
2022/01/03 04:21:27;;;;;;;7.80;4.20;;;;;;;-3.00;78.15;98811.41;25145;1311;3026643;-68
2022/01/03 04:23:56;;;;;;;9.60;4.80;;;;;;;-3.25;78.57;98807.19;25158;1313;3027356;-66
2022/01/03 04:26:25;;;;;;;8.20;4.30;;;;;;;-3.47;79.54;98802.02;25149;1312;3068384;-67
2022/01/03 04:28:54;;;;;;;10.90;5.40;;;;;;;-3.49;80.52;98792.13;25150;1313;3026912;-71
2022/01/03 04:31:23;;;;;;;7.20;3.90;;;;;;;-3.65;80.92;98786.52;25163;1313;3049693;-67
2022/01/03 04:33:52;;;;;;;7.20;4.60;;;;;;;-3.64;81.80;98788.40;25136;1312;3027739;-67
2022/01/03 04:36:21;;;;;;;7.20;4.20;;;;;;;-3.30;80.63;98793.05;25147;1313;3054502;-68
2022/01/03 04:38:51;;;;;;;5.60;3.50;;;;;;;-2.81;79.43;98773.04;25155;1313;3026850;-69
2022/01/03 04:41:20;;;;;;;8.40;3.80;;;;;;;-3.00;79.27;98774.23;25149;1312;3026391;-64
2022/01/03 04:43:49;;;;;;;7.40;4.40;;;;;;;-3.03;80.02;98760.41;25153;1313;3052081;-67
2022/01/03 04:46:19;;;;;;;7.70;4.60;;;;;;;-3.38;80.94;98770.73;25146;1312;3026814;-70
2022/01/03 04:48:47;;;;;;;7.30;3.70;;;;;;;-3.45;81.75;98760.39;25126;1312;3050169;-67
2022/01/03 04:51:17;;;;;;;7.60;5.50;;;;;;;-3.62;82.99;98750.02;25144;1312;3026585;-69
2022/01/03 04:53:47;;;;;;;6.90;3.60;;;;;;;-3.16;81.82;98720.87;25130;1312;3058009;-68
2022/01/03 04:56:16;;;;;;;5.80;3.70;;;;;;;-2.92;81.27;98689.60;25133;1312;3027005;-65
2022/01/03 04:58:46;;;;;;;5.20;3.50;;;;;;;-2.76;81.07;98663.25;25154;1312;3050574;-69
2022/01/03 05:01:16;;;;;;;5.40;3.60;;;;;;;-2.92;80.97;98649.33;25134;1313;3026262;-71
2022/01/03 05:03:45;;;;;;;6.70;3.70;;;;;;;-2.96;81.05;98640.51;25122;1313;3054008;-65
2022/01/03 05:06:14;;;;;;;6.70;3.70;;;;;;;-3.14;81.23;98637.58;25140;1312;3026394;-68
2022/01/03 05:08:43;;;;;;;6.70;3.70;;;;;;;-3.27;81.73;98635.23;25119;1313;3047817;-65
2022/01/03 05:11:13;;;;;;;5.90;3.60;;;;;;;-3.06;81.44;98628.00;25118;1312;3026248;-66
2022/01/03 05:13:43;;;;;;;7.60;4.00;;;;;;;-2.98;80.72;98626.50;25155;1313;3027513;-64
2022/01/03 05:16:13;;;;;;;6.30;3.70;;;;;;;-2.76;80.39;98613.88;25113;1312;3026801;-64
2022/01/03 05:18:42;;;;;;;7.70;4.30;;;;;;;-3.18;81.13;98629.77;25142;1312;3026449;-69
2022/01/03 05:21:12;;;;;;;9.30;4.80;;;;;;;-3.12;81.35;98616.98;25246;1312;3053633;-65
2022/01/03 05:23:41;;;;;;;7.30;4.20;;;;;;;-3.29;81.98;98615.73;25191;1312;3026400;-67
2022/01/03 05:26:10;;;;;;;7.50;4.30;;;;;;;-3.34;82.82;98612.06;25138;1313;3026420;-69
2022/01/03 05:28:39;;;;;;;9.60;4.50;;;;;;;-3.03;82.08;98596.60;25132;1313;3054680;-69
2022/01/03 05:31:09;;;;;;;5.00;3.10;;;;;;;-2.64;80.95;98595.98;25138;1311;3026806;-71
2022/01/03 05:33:38;;;;;;;5.90;3.70;;;;;;;-2.68;80.82;98598.98;25165;1312;3055370;-67
2022/01/03 05:36:07;;;;;;;7.80;4.50;;;;;;;-2.53;80.39;98587.69;25145;1312;3026288;-70
2022/01/03 05:38:36;;;;;;;10.90;4.50;;;;;;;-2.76;81.37;98589.89;25131;1312;3048895;-73
2022/01/03 05:41:05;;;;;;;9.10;4.90;;;;;;;-2.82;81.68;98590.70;25131;1312;3028607;-69
2022/01/03 05:43:35;;;;;;;7.30;3.70;;;;;;;-2.93;82.65;98597.08;25137;1312;3069797;-66
2022/01/03 05:46:04;;;;;;;7.80;4.10;;;;;;;-2.50;81.58;98582.67;25153;1312;3026323;-67
2022/01/03 05:48:33;;;;;;;6.80;3.80;;;;;;;-2.50;81.61;98572.20;25137;1312;3053155;-64
2022/01/03 05:51:02;;;;;;;13.70;5.00;;;;;;;-2.28;81.10;98566.56;25124;1312;3026617;-65
2022/01/03 05:53:32;;;;;;;8.90;4.60;;;;;;;-2.32;81.04;98575.73;25136;1312;3052420;-68
2022/01/03 05:56:00;;;;;;;9.30;4.30;;;;;;;-2.38;81.46;98564.21;25163;1312;3027160;-70
2022/01/03 05:58:30;;;;;;;6.00;3.90;;;;;;;-2.62;82.83;98573.30;25142;1312;3051338;-67
2022/01/03 06:01:01;;;;;;;6.60;4.00;;;;;;;-2.33;82.46;98570.11;25155;1312;3028304;-68
2022/01/03 06:03:37;;;;;;;7.40;4.70;;;;;;;-1.99;81.21;98546.15;25143;1312;3056213;-69
2022/01/03 06:08:40;;;;;;;6.90;4.30;;;;;;;-2.11;81.74;98552.09;25187;1312;3055840;-70
2022/01/03 06:11:09;;;;;;;6.80;4.10;;;;;;;-2.15;81.94;98549.45;25138;1312;3028053;-67
2022/01/03 06:13:39;;;;;;;6.20;4.20;;;;;;;-2.35;83.05;98556.41;25107;1313;3050141;-70
2022/01/03 06:16:08;;;;;;;7.30;4.00;;;;;;;-2.17;83.39;98545.71;25132;1312;3028808;-67
2022/01/03 06:18:38;;;;;;;8.90;4.40;;;;;;;-1.75;81.94;98536.64;25146;1312;3026312;-68
2022/01/03 06:21:11;;;;;;;8.50;5.10;;;;;;;-1.66;81.67;98515.77;25127;1313;3025953;-66
2022/01/03 06:23:46;;;;;;;7.60;4.30;;;;;;;-1.82;82.07;98516.05;25131;1312;3048043;-63
2022/01/03 06:26:16;;;;;;;13.00;6.40;;;;;;;-1.86;82.43;98520.92;25167;1312;3026498;-70
2022/01/03 06:28:49;;;;;;;11.00;4.40;;;;;;;-1.91;83.11;98512.64;25133;1312;3054065;-67
2022/01/03 06:31:20;;;;;;;9.30;4.40;;;;;;;-1.69;82.82;98509.67;25142;1313;3026343;-64
2022/01/03 06:33:50;;;;;;;8.10;3.70;;;;;;;-1.56;82.45;98492.33;25178;1312;3026259;-69
2022/01/03 06:36:19;;;;;;;7.30;4.20;;;;;;;-1.59;82.53;98493.11;25130;1312;3027370;-65
2022/01/03 06:38:48;;;;;;;10.90;5.00;;;;;;;-1.58;82.63;98467.33;25171;1310;3026500;-71
2022/01/03 06:41:18;;;;;;;6.80;4.10;;;;;;;-1.67;83.34;98478.39;25136;1312;3049252;-69
2022/01/03 06:43:47;;;;;;;5.90;3.90;;;;;;;-1.58;83.54;98501.32;25133;1313;3026078;-68
2022/01/03 06:46:16;;;;;;;6.90;4.30;;;;;;;-1.29;82.64;98488.52;25159;1313;3054727;-68
2022/01/03 06:48:46;;;;;;;7.90;4.30;;;;;;;-1.17;81.88;98486.98;25129;1312;3026384;-66
2022/01/03 06:51:16;;;;;;;9.10;4.80;;;;;;;-1.21;81.72;98481.73;25172;1313;3026980;-65
2022/01/03 06:53:45;;;;;;;8.50;5.00;;;;;;;-1.41;82.42;98462.23;25167;1312;3026631;-71
2022/01/03 06:56:15;;;;;;;8.30;4.00;;;;;;;-1.44;82.79;98451.98;25121;1312;3028369;-67
2022/01/03 06:58:46;;;;;;;6.30;4.00;;;;;;;-1.34;82.78;98440.36;25127;1311;3027099;-66
2022/01/03 07:01:16;;;;;;;6.70;4.00;;;;;;;-1.17;82.01;98439.88;25168;1312;3027062;-67
2022/01/03 07:03:45;;;;;;;5.40;3.80;;;;;;;-1.25;82.24;98425.84;25146;1312;3026303;-66
2022/01/03 07:06:14;;;;;;;10.60;5.70;;;;;;;-1.24;82.21;98414.48;25122;1313;3051152;-69
2022/01/03 07:08:43;;;;;;;11.10;5.50;;;;;;;-1.36;82.56;98401.44;25159;1311;3028416;-61
2022/01/03 07:11:12;;;;;;;5.00;3.50;;;;;;;-1.46;83.07;98411.86;25126;1313;3070283;-68
2022/01/03 07:13:48;;;;;;;8.30;3.70;;;;;;;-1.22;83.12;98420.25;25140;1312;3026270;-72
2022/01/03 07:19:07;;;;;;;8.70;3.70;;;;;;;-1.12;82.12;98395.21;25140;1312;3055664;-68
2022/01/03 07:21:36;;;;;;;4.70;3.40;;;;;;;-1.08;82.00;98393.55;25137;1312;3026809;-68
2022/01/03 07:24:05;;;;;;;5.90;3.10;;;;;;;-1.23;82.66;98403.46;25137;1312;3026293;-69
2022/01/03 07:26:34;;;;;;;5.20;3.00;;;;;;;-1.21;83.11;98400.66;25127;1312;3054515;-63
2022/01/03 07:29:03;;;;;;;4.90;3.20;;;;;;;-0.66;82.06;98378.65;25147;1312;3029477;-69
2022/01/03 07:31:32;;;;;;;6.50;3.80;;;;;;;-0.65;81.15;98380.86;25148;1311;3051532;-71
2022/01/03 07:34:01;;;;;;;10.40;5.10;;;;;;;-0.80;82.39;98377.92;25147;1312;3026717;-70
2022/01/03 07:36:30;;;;;;;6.00;3.60;;;;;;;-0.91;83.43;98384.77;25132;1312;3048410;-63
2022/01/03 07:38:59;;;;;;;5.00;3.10;;;;;;;-0.98;84.32;98370.20;25131;1312;3026384;-70
2022/01/03 07:41:29;;;;;;;7.40;3.90;;;;;;;-1.10;85.05;98376.41;25130;1312;3070895;-69
2022/01/03 07:43:58;;;;;;;9.40;4.30;;;;;;;-0.64;84.37;98370.70;25155;1312;3026495;-72
2022/01/03 07:46:27;;;;;;;8.00;3.80;;;;;;;-0.52;83.87;98353.80;25178;1312;3026852;-69
2022/01/03 07:48:56;;;;;;;6.80;3.20;;;;;;;-0.58;83.74;98361.36;25160;1313;3069551;-65
2022/01/03 07:51:25;;;;;;;8.90;4.50;;;;;;;-0.71;84.35;98356.13;25152;1312;3026469;-69
2022/01/03 07:53:54;;;;;;;7.30;3.70;;;;;;;-0.72;84.92;98361.66;25158;1312;3050792;-68
2022/01/03 07:56:23;;;;;;;6.60;3.40;;;;;;;-0.49;84.58;98337.34;25154;1312;3026685;-66
2022/01/03 07:58:53;;;;;;;13.30;4.90;;;;;;;-0.40;85.12;98337.89;25155;1312;3054803;-64
2022/01/03 08:01:22;;;;;;;9.20;4.50;;;;;;;-0.34;85.12;98324.77;25141;1312;3026891;-65
2022/01/03 08:03:51;;;;;;;9.40;5.00;;;;;;;-0.51;85.46;98317.77;25148;1313;3051543;-69
2022/01/03 08:06:20;;;;;;;7.10;4.10;;;;;;;-0.63;85.95;98315.43;25188;1312;3026636;-69
2022/01/03 08:08:50;;;;;;;8.60;4.10;;;;;;;-0.42;86.18;98311.12;25138;1313;3058597;-66
2022/01/03 08:11:20;;;;;;;6.30;3.60;;;;;;;-0.01;84.70;98303.33;25132;1312;3027297;-67
2022/01/03 08:13:49;;;;;;;9.70;3.80;;;;;;;-0.09;84.17;98300.83;25137;1312;3026466;-69
2022/01/03 08:16:18;;;;;;;13.90;5.80;;;;;;;-0.19;84.86;98291.91;25141;1312;3059180;-68
2022/01/03 08:18:47;;;;;;;11.00;5.20;;;;;;;-0.29;85.44;98277.98;25153;1312;3026790;-68
2022/01/03 08:21:16;;;;;;;10.00;5.10;;;;;;;-0.23;85.95;98272.61;25170;1312;3050873;-66
2022/01/03 08:23:46;;;;;;;8.00;3.80;;;;;;;0.22;85.42;98269.59;25135;1312;3026810;-64
2022/01/03 08:26:15;;;;;;;5.30;3.10;;;;;;;0.24;84.71;98271.73;25169;1312;3026604;-73
2022/01/03 08:28:43;;;;;;;9.40;4.60;;;;;;;0.37;84.70;98275.23;25140;1312;3051789;-69
2022/01/03 08:31:13;;;;;;;7.20;4.00;;;;;;;0.34;85.09;98265.68;25127;1312;3026583;-67
2022/01/03 08:33:43;;;;;;;8.70;4.10;;;;;;;0.24;85.19;98266.05;25158;1312;3053944;-68
2022/01/03 08:36:12;;;;;;;8.90;4.00;;;;;;;0.25;86.22;98252.41;25163;1312;3026726;-60
2022/01/03 08:38:41;;;;;;;5.30;3.50;;;;;;;0.67;85.07;98247.02;25164;1313;3026588;-66
2022/01/03 08:41:10;;;;;;;6.80;3.90;;;;;;;0.63;84.72;98237.31;25135;1312;3055511;-63
2022/01/03 08:43:39;;;;;;;8.30;3.80;;;;;;;0.51;86.33;98240.77;25144;1312;3026651;-68
2022/01/03 08:46:08;;;;;;;8.60;4.00;;;;;;;0.36;87.47;98229.61;25147;1312;3051753;-67
2022/01/03 08:48:37;;;;;;;11.30;3.80;;;;;;;0.38;86.81;98217.64;25153;1312;3026747;-66
2022/01/03 08:51:06;;;;;;;8.10;3.60;;;;;;;0.63;86.11;98203.73;25150;1312;3068608;-69
2022/01/03 08:53:35;;;;;;;6.70;3.90;;;;;;;0.93;85.32;98194.25;25156;1313;3026499;-67
2022/01/03 08:56:04;;;;;;;7.30;3.90;;;;;;;0.75;85.31;98185.49;25141;1313;3026356;-67
2022/01/03 08:58:33;;;;;;;7.40;4.40;;;;;;;0.62;86.19;98186.38;25151;1312;3071068;-70
2022/01/03 09:01:02;;;;;;;4.40;2.60;;;;;;;0.51;86.89;98176.28;25134;1312;3028646;-68
2022/01/03 09:03:31;;;;;;;6.00;3.20;;;;;;;0.86;87.08;98169.19;25169;1313;3051690;-66
2022/01/03 09:06:00;;;;;;;6.30;3.30;;;;;;;0.99;86.62;98176.73;25173;1312;3027002;-63
2022/01/03 09:08:29;;;;;;;7.60;4.00;;;;;;;0.98;86.39;98165.60;25136;1312;3026579;-69
2022/01/03 09:10:59;;;;;;;6.10;3.60;;;;;;;0.72;87.44;98175.63;25148;1312;3027464;-68
2022/01/03 09:13:47;;;;;;;8.30;3.30;;;;;;;0.82;88.14;98163.64;25126;1312;3055494;-66
2022/01/03 09:16:16;;;;;;;7.20;2.30;;;;;;;1.24;87.20;98156.88;25148;1312;3026500;-68
2022/01/03 09:18:46;;;;;;;6.50;3.30;;;;;;;1.24;86.15;98151.85;25147;1312;3054544;-73
2022/01/03 09:21:16;;;;;;;5.70;2.70;;;;;;;1.08;86.73;98159.14;25129;1311;3026708;-71
2022/01/03 09:23:49;;;;;;;5.30;2.90;;;;;;;1.12;86.73;98148.59;25136;1312;3029731;-67
2022/01/03 09:29:06;;;;;;;4.40;2.60;;;;;;;1.57;86.53;98150.96;25135;1312;3056311;-64
2022/01/03 09:31:37;;;;;;;4.50;2.40;;;;;;;1.41;86.57;98149.08;25155;1313;3026477;-67
2022/01/03 09:34:08;;;;;;;3.80;2.40;;;;;;;1.25;87.11;98148.55;25147;1312;3052323;-71
2022/01/03 09:36:37;;;;;;;13.30;3.80;;;;;;;1.15;87.19;98133.46;25162;1312;3028338;-66
2022/01/03 09:39:06;;;;;;;5.20;2.80;;;;;;;0.93;88.53;98117.18;25117;1312;3026377;-68
2022/01/03 09:41:35;;;;;;;3.80;2.50;;;;;;;1.44;88.30;98107.17;25160;1312;3054803;-67
2022/01/03 09:44:08;;;;;;;3.10;1.90;;;;;;;1.57;87.03;98100.73;25173;1312;3026469;-72
2022/01/03 09:46:42;;;;;;;7.00;2.70;;;;;;;1.55;87.03;98091.14;25116;1312;3048712;-68
2022/01/03 09:49:12;;;;;;;2.00;1.80;;;;;;;1.34;87.34;98096.26;25123;1312;3051263;-68
2022/01/03 09:51:42;;;;;;;3.00;1.70;;;;;;;1.22;88.45;98087.95;25141;1312;3027008;-68
2022/01/03 09:54:14;;;;;;;6.40;2.80;;;;;;;1.56;88.68;98081.27;25125;1312;3027482;-67
2022/01/03 09:56:43;;;;;;;3.90;2.20;;;;;;;1.53;88.16;98077.94;25130;1312;3029032;-71
2022/01/03 09:59:13;;;;;;;8.60;2.90;;;;;;;1.53;87.96;98062.77;25147;1312;3026734;-66
2022/01/03 10:01:42;;;;;;;6.60;2.80;;;;;;;1.38;87.95;98052.90;25156;1312;3056424;-69
2022/01/03 10:04:12;;;;;;;2.30;2.00;;;;;;;1.20;88.91;98049.94;25117;1312;3026501;-72
2022/01/03 10:06:47;;;;;;;3.50;2.10;;;;;;;1.51;88.70;98057.15;25117;1312;3055201;-68
2022/01/03 10:09:37;;;;;;;4.00;2.70;;;;;;;1.88;87.16;98051.11;25168;1312;3056404;-67
2022/01/03 10:12:09;;;;;;;8.60;3.00;;;;;;;1.78;87.00;98041.58;25153;1312;3026372;-70
2022/01/03 10:14:51;;;;;;;5.60;2.50;;;;;;;1.59;87.72;98052.46;25146;1312;3055403;-68
2022/01/03 10:17:20;;;;;;;3.00;1.90;;;;;;;1.62;88.46;98049.60;25141;1312;3026735;-69
2022/01/03 10:20:03;;;;;;;3.10;2.20;;;;;;;2.12;86.87;98035.96;25153;1313;3070615;-70
2022/01/03 10:22:34;;;;;;;6.10;2.60;;;;;;;2.30;85.95;98026.80;25124;1311;3028415;-64
2022/01/03 10:25:16;;;;;;;4.40;2.60;;;;;;;2.04;86.35;98018.40;25137;1312;3028886;-64
2022/01/03 10:27:53;;;;;;;2.70;1.80;;;;;;;2.04;86.69;98013.75;25127;1312;3071082;-66
2022/01/03 10:30:43;;;;;;;2.70;1.90;;;;;;;1.95;87.75;98015.20;25170;1312;3048175;-68
2022/01/03 10:33:19;;;;;;;3.50;2.30;;;;;;;2.62;86.11;97994.95;25103;1312;3055288;-66
2022/01/03 10:35:53;;;;;;;3.70;2.10;;;;;;;2.75;84.63;97980.77;25137;1312;3054906;-68
2022/01/03 10:38:36;;;;;;;2.40;1.90;;;;;;;2.66;84.21;97982.27;25132;1312;3058755;-68
2022/01/03 10:41:10;;;;;;;2.10;1.50;;;;;;;2.14;85.57;97994.59;25131;1312;3050326;-66
2022/01/03 10:43:39;;;;;;;1.80;1.60;;;;;;;2.26;86.19;97998.12;25121;1312;3052827;-64
2022/01/03 10:46:25;;;;;;;4.40;2.30;;;;;;;2.76;84.56;97988.31;25153;1313;3026900;-69
2022/01/03 10:49:11;;;;;;;3.50;2.50;;;;;;;2.69;84.36;97976.40;25120;1312;3049751;-67
2022/01/03 10:51:41;;;;;;;5.20;2.60;;;;;;;2.78;83.66;97966.77;25111;1312;3052520;-68
2022/01/03 10:54:12;;;;;;;5.20;1.80;;;;;;;2.43;84.41;97970.30;25150;1312;3027182;-67
2022/01/03 10:56:52;;;;;;;3.60;2.20;;;;;;;2.51;84.89;97961.83;25132;1312;3052233;-67
2022/01/03 10:59:24;;;;;;;6.80;2.20;;;;;;;2.87;84.12;97956.79;25145;1312;3026670;-68
2022/01/03 11:01:59;;;;;;;3.90;2.60;;;;;;;2.85;83.67;97932.52;25119;1312;3056891;-65
2022/01/03 11:13:15;;;;;;;2.90;2.00;;;;;;;2.65;85.20;97926.11;25115;1312;3071186;-71
2022/01/03 11:15:56;;;;;;;3.80;2.40;;;;;;;3.30;83.89;97920.73;25147;1312;3051258;-68
2022/01/03 11:18:33;;;;;;;3.90;2.80;;;;;;;2.85;83.29;97914.20;25131;1312;3051983;-66
2022/01/03 11:21:08;;;;;;;7.50;3.10;;;;;;;2.72;83.79;97916.30;25152;1312;3053101;-69
2022/01/03 11:23:38;;;;;;;4.00;2.50;;;;;;;2.43;85.34;97923.97;25139;1312;3057524;-66
2022/01/03 11:26:10;;;;;;;5.40;3.00;;;;;;;2.65;85.71;97921.45;25118;1312;3026801;-66
2022/01/03 11:28:40;;;;;;;10.60;4.90;;;;;;;3.17;83.44;97902.05;25119;1313;3027592;-66
2022/01/03 11:31:10;;;;;;;11.20;5.10;;;;;;;3.18;82.82;97900.14;25114;1312;3026592;-69
2022/01/03 11:33:39;;;;;;;11.90;5.60;;;;;;;2.99;83.64;97900.83;25159;1312;3026735;-64
2022/01/03 11:36:08;;;;;;;3.00;2.30;;;;;;;2.69;84.06;97895.50;25132;1312;3029145;-68
2022/01/03 11:38:39;;;;;;;3.00;2.20;;;;;;;2.73;84.33;97886.48;25118;1312;3053642;-66
2022/01/03 11:41:09;;;;;;;4.80;3.40;;;;;;;3.09;83.16;97875.04;25134;1313;3027654;-70
2022/01/03 11:43:40;;;;;;;5.40;3.20;;;;;;;3.35;82.32;97874.09;25150;1312;3026899;-66
2022/01/03 11:46:09;;;;;;;6.00;3.10;;;;;;;3.00;82.59;97868.73;25143;1312;3029846;-69
2022/01/03 11:48:39;;;;;;;4.80;3.20;;;;;;;3.04;82.67;97862.48;25138;1312;3027117;-65
2022/01/03 11:51:11;;;;;;;4.40;2.80;;;;;;;2.81;83.35;97861.34;25146;1312;3026494;-68
2022/01/03 11:53:45;;;;;;;6.50;4.30;;;;;;;3.20;82.54;97856.89;25109;1312;3056487;-64
2022/01/03 11:56:24;;;;;;;5.00;3.50;;;;;;;3.46;81.70;97852.67;25148;1313;3050855;-65